x

Smith Island, Wa (sisw1) Weather Station

9:00pm - Sun 23rd Apr 2017 All times are PDT. -7 hours from GMT.

  • Wind
    17mph, 18mph gusts
  • 空気 Temp 47°f
  • Sea Pressure 1008.1mb
  • Smith Island, Wa
  • Smith Island, Wa

More Historic Weather Station data

Upgrade to MSW Pro to gain access to the past 30 days of data for over 8000 Wavebouys and Weather Stations around the globe.

Join Pro

Comparision Forecast

View Surf forecast
   
Sun 04/23 9:00pm 17 18 mph 1008.1mb 47f
8:00pm 20 22 mph 1007.9mb 48f
7:00pm 17 20 mph 1007.9mb 48f
6:00pm 24 26 mph 1007.9mb 49f
5:00pm 29 34 mph 1008.1mb 50f
4:00pm 29 32 mph 1008.1mb 51f
3:00pm 26 31 mph 1008.7mb 52f
2:00pm 23 25 mph 1009.3mb 51f
1:00pm 23 28 mph 1010mb 51f
12:00pm 23 26 mph 1010.5mb 52f
11:00am 18 21 mph 1011.1mb 53f
10:00am 16 17 mph 1011.2mb 50f
9:00am 11
mph
1011.6mb 49f
8:00am 13 14 mph 1011.9mb 48f
7:00am 9 11 mph 1012.2mb 48f
6:00am 8
mph
1012.2mb 48f
5:00am 6
mph
1012.5mb 48f
4:00am 5
mph
1012.9mb 48f
3:00am 9 10 mph 1013.3mb 49f
2:00am 9
mph
1013.4mb 49f
1:00am 7
mph
1013.4mb 48f
12:00am 6 7 mph 1013.3mb 49f
Sat 04/22 11:00pm 10 11 mph 1013.3mb 49f
10:00pm 8 10 mph 1013.1mb 50f
9:00pm 7 9 mph 1012.5mb 51f
8:00pm 7 8 mph 1012.1mb 51f
7:00pm 2 3 mph 1011.3mb 53f
6:00pm 20 21 mph 1010.5mb 54f
5:00pm 31 33 mph 1009.9mb 55f
4:00pm 33 38 mph 1009.7mb 54f
3:00pm 30 34 mph 1009.7mb 54f
2:00pm 28 31 mph 1009.3mb 53f
1:00pm 22 24 mph 1009.6mb 51f
12:00pm 22 24 mph 1009.4mb 51f
11:00am 13
mph
1006.9mb 53f
10:00am 2
mph
1006.9mb 55f
9:00am 5 6 mph 1007.3mb 54f
8:00am 16 17 mph 1006.8mb 53f
7:00am 11 13 mph 1008.4mb 52f
6:00am 13
mph
1009.4mb 50f
5:00am 9 10 mph 1010.5mb 51f
4:00am 9
mph
1011.6mb 52f
3:00am 8 9 mph 1012.5mb 52f
2:00am 5
mph
1013.6mb 52f
1:00am 9 10 mph 1014.7mb 51f
12:00am 7 8 mph 1015.6mb 50f
Fri 04/21 11:00pm 1
mph
1016.8mb 51f
10:00pm 6 7 mph 1017.7mb 50f
9:00pm 1 2 mph 1018.2mb 52f
8:00pm 5 6 mph 1018.7mb 54f
7:00pm 11
mph
1019.5mb 55f
6:00pm 13 14 mph 1020.4mb 57f
5:00pm 6 7 mph 1021.7mb 57f
4:00pm 6 7 mph 1023mb 54f
3:00pm 6 8 mph 1024.6mb 52f
2:00pm 8 10 mph 1025.8mb 53f
1:00pm 7 8 mph 1026.6mb 54f
12:00pm 5 6 mph 1027.7mb 51f
11:00am 5 6 mph 1028.6mb 50f
10:00am 3 5 mph 1029.2mb 51f
9:00am 3 5 mph 1029.5mb 51f
8:00am 6
mph
1029.9mb 49f
7:00am 7 8 mph 1029.8mb 46f
6:00am 7
mph
1029.8mb 46f
5:00am 7 8 mph 1029.6mb 47f
4:00am 8 10 mph 1029.8mb 48f
3:00am 7 9 mph 1029.7mb 48f
2:00am 8
mph
1029.8mb 48f
1:00am 8 9 mph 1029.6mb 49f
12:00am 11 13 mph 1029.2mb 49f
Thu 04/20 11:00pm 14 15 mph 1028.6mb 49f
10:00pm 14 15 mph 1028mb 49f
9:00pm 10 16 mph 1027.1mb 50f
8:00pm 11 18 mph 1026.3mb 49f
7:00pm 24 26 mph 1025.6mb 51f
6:00pm 9 13 mph 1025.4mb 52f
5:00pm 3 5 mph 1025.1mb 55f
4:00pm 3
mph
1024.4mb 55f
3:00pm 2 3 mph 1024.1mb 54f
2:00pm 3
mph
1023.6mb 53f
1:00pm 3 5 mph 1023.6mb 52f
12:00pm 3 5 mph 1023.1mb 53f
11:00am 5 6 mph 1022.5mb 51f
10:00am 8 9 mph 1021.9mb 51f
9:00am 8 9 mph 1021.1mb 50f
8:00am 10 11 mph 1020.5mb 47f
7:00am 9 10 mph 1019.9mb 47f
6:00am 11 13 mph 1019.3mb 47f